createdAt,value
2022-11-10T00:02:08.173Z,13.30
2022-11-10T00:04:58.790Z,13.20
2022-11-10T00:07:49.412Z,13.20
2022-11-10T00:10:57.007Z,13.20
2022-11-10T00:14:07.519Z,13.10
2022-11-10T00:17:00.934Z,13.10
2022-11-10T00:19:51.192Z,13.10
2022-11-10T00:22:41.829Z,13.20
2022-11-10T00:25:33.350Z,13.20
2022-11-10T00:28:23.839Z,13.30
2022-11-10T00:31:14.315Z,13.40
2022-11-10T00:34:04.966Z,13.30
2022-11-10T00:36:55.202Z,13.30
2022-11-10T00:39:45.649Z,13.30
2022-11-10T00:42:36.058Z,13.30
2022-11-10T00:45:26.715Z,13.30
2022-11-10T00:48:17.412Z,13.20
2022-11-10T00:51:09.968Z,13.20
2022-11-10T00:54:00.413Z,13.00
2022-11-10T00:56:50.945Z,13.10
2022-11-10T00:59:41.472Z,13.10
2022-11-10T01:02:32.349Z,13.10
2022-11-10T01:05:23.159Z,13.10
2022-11-10T01:08:13.320Z,13.00
2022-11-10T01:11:05.917Z,13.00
2022-11-10T01:13:57.323Z,13.00
2022-11-10T01:16:47.574Z,13.00
2022-11-10T01:19:37.999Z,13.00
2022-11-10T01:22:28.667Z,12.90
2022-11-10T01:25:19.125Z,13.00
2022-11-10T01:28:09.619Z,12.90
2022-11-10T01:31:14.775Z,12.90
2022-11-10T01:34:05.716Z,12.80
2022-11-10T01:36:56.202Z,12.70
2022-11-10T01:39:46.590Z,12.70
2022-11-10T01:42:57.325Z,12.70
2022-11-10T01:45:53.119Z,12.80
2022-11-10T01:48:53.298Z,12.80
2022-11-10T01:51:58.234Z,12.80
2022-11-10T01:54:49.849Z,12.80
2022-11-10T01:57:41.944Z,12.80
2022-11-10T02:00:32.398Z,12.80
2022-11-10T02:03:31.606Z,12.80
2022-11-10T02:06:26.306Z,12.80
2022-11-10T02:09:17.482Z,12.80
2022-11-10T02:12:08.023Z,12.80
2022-11-10T02:14:58.482Z,12.90
2022-11-10T02:17:49.479Z,12.90
2022-11-10T02:20:44.727Z,12.80
2022-11-10T02:23:35.218Z,12.80
2022-11-10T02:26:29.840Z,12.90
2022-11-10T02:29:20.970Z,12.90
2022-11-10T02:32:11.317Z,12.90
2022-11-10T02:35:01.641Z,12.90
2022-11-10T02:37:52.042Z,12.90
2022-11-10T02:40:42.618Z,12.90
2022-11-10T02:43:33.606Z,12.80
2022-11-10T02:46:24.534Z,12.70
2022-11-10T02:49:14.724Z,12.70
2022-11-10T02:52:05.358Z,12.70
2022-11-10T02:54:55.505Z,12.70
2022-11-10T02:57:45.941Z,12.80
2022-11-10T03:00:36.486Z,12.80
2022-11-10T03:03:27.316Z,12.80
2022-11-10T03:06:17.915Z,12.80
2022-11-10T03:09:08.434Z,12.80
2022-11-10T03:11:58.878Z,12.90
2022-11-10T03:14:49.383Z,12.80
2022-11-10T03:17:40.233Z,12.80
2022-11-10T03:20:30.804Z,12.80
2022-11-10T03:23:21.434Z,12.70
2022-11-10T03:26:12.011Z,12.60
2022-11-10T03:29:02.605Z,12.50
2022-11-10T03:31:53.063Z,12.50
2022-11-10T03:34:43.400Z,12.50
2022-11-10T03:37:33.853Z,12.60
2022-11-10T03:40:24.293Z,12.60
2022-11-10T03:43:14.843Z,12.60
2022-11-10T03:46:05.419Z,12.60
2022-11-10T03:48:56.049Z,12.70
2022-11-10T03:51:46.679Z,12.70
2022-11-10T03:54:37.066Z,12.70
2022-11-10T03:57:27.583Z,12.70
2022-11-10T04:00:18.310Z,12.70
2022-11-10T04:03:08.625Z,12.70
2022-11-10T04:06:17.505Z,12.70
2022-11-10T04:09:08.868Z,12.80
2022-11-10T04:12:23.572Z,12.70
2022-11-10T04:15:33.781Z,12.70
2022-11-10T04:18:27.100Z,12.60
2022-11-10T04:21:17.460Z,12.60
2022-11-10T04:24:08.677Z,12.70
2022-11-10T04:26:58.881Z,12.60
2022-11-10T04:29:49.293Z,12.60
2022-11-10T04:32:39.935Z,12.70
2022-11-10T04:35:30.439Z,12.70
2022-11-10T04:38:20.908Z,12.70
2022-11-10T04:41:12.016Z,12.80
2022-11-10T04:44:02.963Z,12.80
2022-11-10T04:46:53.102Z,12.90
2022-11-10T04:49:43.532Z,12.80
2022-11-10T04:52:34.068Z,12.80
2022-11-10T04:55:24.394Z,12.90
2022-11-10T04:58:15.302Z,12.90
2022-11-10T05:01:05.542Z,12.80
2022-11-10T05:03:56.408Z,12.90
2022-11-10T05:06:46.956Z,12.80
2022-11-10T05:09:37.384Z,12.80
2022-11-10T05:12:27.972Z,12.80
2022-11-10T05:15:18.465Z,12.70
2022-11-10T05:18:08.873Z,12.60
2022-11-10T05:20:59.388Z,12.70
2022-11-10T05:23:49.913Z,12.70
2022-11-10T05:26:40.250Z,12.60
2022-11-10T05:29:30.725Z,12.70
2022-11-10T05:32:21.294Z,12.70
2022-11-10T05:35:11.790Z,12.70
2022-11-10T05:38:03.166Z,12.70
2022-11-10T05:40:53.561Z,12.60
2022-11-10T05:43:43.870Z,12.50
2022-11-10T05:46:34.348Z,12.50
2022-11-10T05:49:24.792Z,12.60
2022-11-10T05:52:15.450Z,12.60
2022-11-10T05:55:05.944Z,12.60
2022-11-10T05:57:57.237Z,12.60
2022-11-10T06:00:47.637Z,12.60
2022-11-10T06:03:38.295Z,12.70
2022-11-10T06:06:28.633Z,12.60
2022-11-10T06:09:19.327Z,12.70
2022-11-10T06:12:09.910Z,12.70
2022-11-10T06:15:00.488Z,12.60
2022-11-10T06:17:51.183Z,12.60
2022-11-10T06:20:41.448Z,12.60
2022-11-10T06:23:31.871Z,12.60
2022-11-10T06:26:22.296Z,12.70
2022-11-10T06:29:12.754Z,12.60
2022-11-10T06:32:03.131Z,12.70
2022-11-10T06:34:59.327Z,12.70
2022-11-10T06:38:01.864Z,12.60
2022-11-10T06:40:52.346Z,12.60
2022-11-10T06:43:42.855Z,12.70
2022-11-10T06:46:35.923Z,12.70
2022-11-10T06:49:29.767Z,12.60
2022-11-10T06:52:20.276Z,12.50
2022-11-10T06:55:10.849Z,12.60
2022-11-10T06:58:01.482Z,12.60
2022-11-10T07:00:52.117Z,12.60
2022-11-10T07:04:05.033Z,12.60
2022-11-10T07:06:53.101Z,12.60
2022-11-10T07:09:43.763Z,12.50
2022-11-10T07:12:34.346Z,12.60
2022-11-10T07:15:24.940Z,12.60
2022-11-10T07:18:15.474Z,12.60
2022-11-10T07:21:06.364Z,12.70
2022-11-10T07:23:56.764Z,12.70
2022-11-10T07:26:47.141Z,12.70
2022-11-10T07:29:38.045Z,12.80
2022-11-10T07:32:28.136Z,12.80
2022-11-10T07:35:18.614Z,12.90
2022-11-10T07:38:11.812Z,12.80
2022-11-10T07:41:02.221Z,12.90
2022-11-10T07:43:52.680Z,12.90
2022-11-10T07:46:43.158Z,12.90
2022-11-10T07:49:33.801Z,12.90
2022-11-10T07:52:24.445Z,13.00
2022-11-10T07:55:15.198Z,13.10
2022-11-10T07:58:06.236Z,13.20
2022-11-10T08:00:56.663Z,13.10
2022-11-10T08:03:47.183Z,13.20
2022-11-10T08:06:37.724Z,13.20
2022-11-10T08:09:28.087Z,13.20
2022-11-10T08:12:18.622Z,13.20
2022-11-10T08:15:10.146Z,13.30
2022-11-10T08:18:15.449Z,13.30
2022-11-10T08:21:06.627Z,13.40
2022-11-10T08:23:56.873Z,13.40
2022-11-10T08:26:47.297Z,13.40
2022-11-10T08:29:37.711Z,13.20
2022-11-10T08:32:28.326Z,13.20
2022-11-10T08:35:18.992Z,13.10
2022-11-10T08:38:20.133Z,13.20
2022-11-10T08:41:10.539Z,13.30
2022-11-10T08:44:00.892Z,13.50
2022-11-10T08:46:51.388Z,13.60
2022-11-10T08:49:41.991Z,13.70
2022-11-10T08:52:32.558Z,13.70
2022-11-10T08:55:23.256Z,13.70
2022-11-10T08:58:16.147Z,13.60
2022-11-10T09:01:11.562Z,13.60
2022-11-10T09:04:02.452Z,13.70
2022-11-10T09:06:52.895Z,13.80
2022-11-10T09:09:46.601Z,13.90
2022-11-10T09:12:43.850Z,14.00
2022-11-10T09:15:35.080Z,14.00
2022-11-10T09:18:25.497Z,14.10
2022-11-10T09:21:16.190Z,14.10
2022-11-10T09:24:07.146Z,13.90
2022-11-10T09:26:57.656Z,13.90
2022-11-10T09:29:48.217Z,13.90
2022-11-10T09:32:38.814Z,13.90
2022-11-10T09:35:29.401Z,14.00
2022-11-10T09:38:20.028Z,14.00
2022-11-10T09:41:15.159Z,14.10
2022-11-10T09:44:14.349Z,14.10
2022-11-10T09:47:18.933Z,14.10
2022-11-10T09:50:29.620Z,14.30
2022-11-10T09:53:25.306Z,14.40
2022-11-10T09:56:22.853Z,14.50
2022-11-10T09:59:24.798Z,14.60
2022-11-10T10:02:24.101Z,14.60
2022-11-10T10:05:53.842Z,14.80
2022-11-10T10:08:44.140Z,15.10
2022-11-10T10:11:58.188Z,15.20
2022-11-10T10:15:34.997Z,15.10
2022-11-10T10:18:29.853Z,15.20
2022-11-10T10:21:49.878Z,15.60
2022-11-10T10:24:40.237Z,17.20
2022-11-10T10:27:41.256Z,18.80
2022-11-10T10:30:31.642Z,19.10
2022-11-10T10:33:23.466Z,18.10
2022-11-10T10:36:27.132Z,17.50
2022-11-10T10:39:25.535Z,17.40
2022-11-10T10:42:36.843Z,17.30
2022-11-10T10:45:29.168Z,17.40
2022-11-10T10:48:28.435Z,17.50
2022-11-10T10:51:29.999Z,17.80
2022-11-10T10:54:30.593Z,18.00
2022-11-10T10:57:28.263Z,18.00
2022-11-10T11:00:24.014Z,17.90
2022-11-10T11:03:38.769Z,17.90
2022-11-10T11:06:32.106Z,17.90
2022-11-10T11:09:46.985Z,18.00
2022-11-10T11:12:37.338Z,17.90
2022-11-10T11:15:30.414Z,18.10
2022-11-10T11:18:27.040Z,18.10
2022-11-10T11:21:35.074Z,18.10
2022-11-10T11:24:37.079Z,18.00
2022-11-10T11:27:45.984Z,17.90
2022-11-10T11:31:14.526Z,17.90
2022-11-10T11:34:38.412Z,17.80
2022-11-10T11:37:34.717Z,17.50
2022-11-10T11:40:42.274Z,17.30
2022-11-10T11:43:59.899Z,17.10
2022-11-10T11:47:09.626Z,17.10
2022-11-10T11:50:02.658Z,17.30
2022-11-10T11:53:12.029Z,17.30
2022-11-10T11:56:14.566Z,17.00
2022-11-10T11:59:28.656Z,16.90
2022-11-10T12:03:00.797Z,16.80
2022-11-10T12:06:21.633Z,16.90
2022-11-10T12:09:38.311Z,17.00
2022-11-10T12:12:40.045Z,16.80
2022-11-10T12:15:57.440Z,16.60
2022-11-10T12:19:13.248Z,16.70
2022-11-10T12:22:13.256Z,16.90
2022-11-10T12:25:29.503Z,16.90
2022-11-10T12:28:38.063Z,16.90
2022-11-10T12:31:32.597Z,16.70
2022-11-10T12:34:36.600Z,16.70
2022-11-10T12:37:33.755Z,16.60
2022-11-10T12:40:41.835Z,16.50
2022-11-10T12:43:35.860Z,16.70
2022-11-10T12:46:26.620Z,16.50
2022-11-10T12:49:39.037Z,16.40
2022-11-10T12:52:40.641Z,16.50
2022-11-10T12:55:46.280Z,16.60
2022-11-10T12:58:37.632Z,16.70
2022-11-10T13:01:28.167Z,16.90
2022-11-10T13:04:20.733Z,17.10
2022-11-10T13:07:13.722Z,17.20
2022-11-10T13:10:23.960Z,17.10
2022-11-10T13:13:15.282Z,16.80
2022-11-10T13:16:08.262Z,16.70
2022-11-10T13:18:59.179Z,16.60
2022-11-10T13:21:52.504Z,16.50
2022-11-10T13:24:44.634Z,16.50
2022-11-10T13:27:38.217Z,16.70
2022-11-10T13:30:42.211Z,16.80
2022-11-10T13:33:32.993Z,16.80
2022-11-10T13:36:44.309Z,16.80
2022-11-10T13:39:34.969Z,16.70
2022-11-10T13:42:25.291Z,16.80
2022-11-10T13:45:27.395Z,16.80
2022-11-10T13:48:17.844Z,16.80
2022-11-10T13:51:24.049Z,16.80
2022-11-10T13:54:35.459Z,16.80
2022-11-10T13:57:30.584Z,16.80
2022-11-10T14:00:21.170Z,16.80
2022-11-10T14:03:47.681Z,16.70
2022-11-10T14:06:50.575Z,16.70
2022-11-10T14:09:48.835Z,16.80
2022-11-10T14:12:50.756Z,16.80
2022-11-10T14:15:46.142Z,16.80
2022-11-10T14:18:41.661Z,16.60
2022-11-10T14:21:47.349Z,16.60
2022-11-10T14:24:52.809Z,16.60
2022-11-10T14:27:45.228Z,16.50
2022-11-10T14:30:35.800Z,16.40
2022-11-10T14:33:27.707Z,16.40
2022-11-10T14:36:18.936Z,16.30
2022-11-10T14:39:09.121Z,16.30
2022-11-10T14:42:05.992Z,16.40
2022-11-10T14:45:07.400Z,16.40
2022-11-10T14:48:00.042Z,16.20
2022-11-10T14:50:51.773Z,16.20
2022-11-10T14:53:48.637Z,16.10
2022-11-10T14:56:42.533Z,16.10
2022-11-10T14:59:33.202Z,16.10
2022-11-10T15:02:24.014Z,16.10
2022-11-10T15:05:15.892Z,16.00
2022-11-10T15:08:06.328Z,15.90
2022-11-10T15:10:57.068Z,15.90
2022-11-10T15:13:47.701Z,15.80
2022-11-10T15:16:38.705Z,15.70
2022-11-10T15:19:53.301Z,15.60
2022-11-10T15:22:43.773Z,15.50
2022-11-10T15:25:40.467Z,15.40
2022-11-10T15:28:35.281Z,15.30
2022-11-10T15:31:31.540Z,15.20
2022-11-10T15:34:30.095Z,15.20
2022-11-10T15:37:30.797Z,15.20
2022-11-10T15:40:44.595Z,15.30
2022-11-10T15:43:35.083Z,15.20
2022-11-10T15:46:26.713Z,15.20
2022-11-10T15:49:41.253Z,15.30
2022-11-10T15:52:33.297Z,15.20
2022-11-10T15:55:24.706Z,15.10
2022-11-10T15:58:17.017Z,15.10
2022-11-10T16:01:11.196Z,15.10
2022-11-10T16:04:01.790Z,15.10
2022-11-10T16:06:52.550Z,15.10
2022-11-10T16:09:42.849Z,15.00
2022-11-10T16:12:37.068Z,14.90
2022-11-10T16:15:27.713Z,14.80
2022-11-10T16:18:24.448Z,14.80
2022-11-10T16:21:17.925Z,14.60
2022-11-10T16:24:08.395Z,14.70
2022-11-10T16:26:58.933Z,14.70
2022-11-10T16:29:49.489Z,14.60
2022-11-10T16:32:40.178Z,14.60
2022-11-10T16:35:30.826Z,14.50
2022-11-10T16:38:27.363Z,14.50
2022-11-10T16:41:17.732Z,14.60
2022-11-10T16:44:13.493Z,14.70
2022-11-10T16:47:03.994Z,14.50
2022-11-10T16:49:54.416Z,14.30
2022-11-10T16:52:45.082Z,14.30
2022-11-10T16:55:35.743Z,14.20
2022-11-10T16:58:29.599Z,14.20
2022-11-10T17:01:29.194Z,14.10
2022-11-10T17:04:19.666Z,14.10
2022-11-10T17:07:14.778Z,14.10
2022-11-10T17:10:05.993Z,14.00
2022-11-10T17:12:56.272Z,13.90
2022-11-10T17:15:47.629Z,13.90
2022-11-10T17:18:38.001Z,13.70
2022-11-10T17:21:33.092Z,13.60
2022-11-10T17:24:24.565Z,13.50
2022-11-10T17:27:16.886Z,13.30
2022-11-10T17:30:10.249Z,13.30
2022-11-10T17:33:05.364Z,13.20
2022-11-10T17:35:57.415Z,13.30
2022-11-10T17:38:48.254Z,13.40
2022-11-10T17:41:38.498Z,13.40
2022-11-10T17:44:28.912Z,13.30
2022-11-10T17:47:19.387Z,13.20
2022-11-10T17:50:10.030Z,13.20
2022-11-10T17:53:12.455Z,13.20
2022-11-10T17:56:03.011Z,13.10
2022-11-10T17:58:53.561Z,13.10
2022-11-10T18:01:43.934Z,12.90
2022-11-10T18:04:34.531Z,12.90
2022-11-10T18:07:25.314Z,12.80
2022-11-10T18:10:16.049Z,12.70
2022-11-10T18:13:06.501Z,12.70
2022-11-10T18:16:00.455Z,12.70
2022-11-10T18:18:50.753Z,12.70
2022-11-10T18:21:41.253Z,12.60
2022-11-10T18:24:31.408Z,12.60
2022-11-10T18:27:28.735Z,12.50
2022-11-10T18:30:19.469Z,12.50
2022-11-10T18:33:11.301Z,12.50
2022-11-10T18:36:02.369Z,12.50
2022-11-10T18:38:52.618Z,12.40
2022-11-10T18:41:48.816Z,12.30
2022-11-10T18:44:39.571Z,12.40
2022-11-10T18:47:29.908Z,12.40
2022-11-10T18:50:20.504Z,12.40
2022-11-10T18:53:10.923Z,12.30
2022-11-10T18:56:01.521Z,12.30
2022-11-10T18:58:56.761Z,12.30
2022-11-10T19:01:47.582Z,12.30
2022-11-10T19:04:37.959Z,12.30
2022-11-10T19:07:29.517Z,12.30
2022-11-10T19:10:19.836Z,12.30
2022-11-10T19:13:09.912Z,12.20
2022-11-10T19:16:05.251Z,12.10
2022-11-10T19:18:56.690Z,12.00
2022-11-10T19:21:46.927Z,11.90
2022-11-10T19:24:53.625Z,12.00
2022-11-10T19:27:47.912Z,12.00
2022-11-10T19:30:39.471Z,12.00
2022-11-10T19:33:34.739Z,11.90
2022-11-10T19:36:27.141Z,11.90
2022-11-10T19:39:17.491Z,11.90
2022-11-10T19:42:07.962Z,11.90
2022-11-10T19:45:01.638Z,11.90
2022-11-10T19:47:51.990Z,12.00
2022-11-10T19:50:46.629Z,11.90
2022-11-10T19:53:44.567Z,11.90
2022-11-10T19:56:35.653Z,11.80
2022-11-10T19:59:26.302Z,11.80
2022-11-10T20:02:16.742Z,11.70
2022-11-10T20:05:13.277Z,11.80
2022-11-10T20:08:12.537Z,11.90
2022-11-10T20:11:08.698Z,11.80
2022-11-10T20:14:03.802Z,11.80
2022-11-10T20:16:54.396Z,11.90
2022-11-10T20:19:44.982Z,11.90
2022-11-10T20:22:35.787Z,11.90
2022-11-10T20:25:25.978Z,11.80
2022-11-10T20:28:16.427Z,11.80
2022-11-10T20:31:10.005Z,11.60
2022-11-10T20:34:00.251Z,11.60
2022-11-10T20:36:50.813Z,11.60
2022-11-10T20:39:41.222Z,11.60
2022-11-10T20:42:32.027Z,11.50
2022-11-10T20:45:22.244Z,11.50
2022-11-10T20:48:12.924Z,11.60
2022-11-10T20:51:12.894Z,11.50
2022-11-10T20:54:03.535Z,11.40
2022-11-10T20:56:54.655Z,11.50
2022-11-10T20:59:45.120Z,11.40
2022-11-10T21:02:35.572Z,11.40
2022-11-10T21:05:26.103Z,11.40
2022-11-10T21:08:16.354Z,11.40
2022-11-10T21:11:09.280Z,11.50
2022-11-10T21:13:59.818Z,11.40
2022-11-10T21:16:50.062Z,11.40
2022-11-10T21:19:40.936Z,11.40
2022-11-10T21:22:31.270Z,11.40
2022-11-10T21:25:21.738Z,11.30
2022-11-10T21:28:12.392Z,11.30
2022-11-10T21:31:06.396Z,11.20
2022-11-10T21:33:58.002Z,11.10
2022-11-10T21:36:48.513Z,11.10
2022-11-10T21:39:38.978Z,11.20
2022-11-10T21:42:35.148Z,11.20
2022-11-10T21:45:25.940Z,11.20
2022-11-10T21:48:16.586Z,11.20
2022-11-10T21:51:08.982Z,11.20
2022-11-10T21:53:59.629Z,11.20
2022-11-10T21:56:50.279Z,11.20
2022-11-10T21:59:40.637Z,11.30
2022-11-10T22:02:31.175Z,11.30
2022-11-10T22:05:21.654Z,11.40
2022-11-10T22:08:12.100Z,11.30
2022-11-10T22:11:21.042Z,11.30
2022-11-10T22:14:48.363Z,11.20
2022-11-10T22:17:57.021Z,11.10
2022-11-10T22:20:48.768Z,11.20
2022-11-10T22:23:59.228Z,11.20
2022-11-10T22:26:55.149Z,11.30
2022-11-10T22:29:45.609Z,11.30
2022-11-10T22:32:36.082Z,11.30
2022-11-10T22:35:44.833Z,11.30
2022-11-10T22:38:40.957Z,11.40
2022-11-10T22:41:50.043Z,11.30
2022-11-10T22:44:40.494Z,11.20
2022-11-10T22:47:50.828Z,11.10
2022-11-10T22:50:41.349Z,11.10
2022-11-10T22:53:37.502Z,11.10
2022-11-10T22:56:28.809Z,11.00
2022-11-10T22:59:19.467Z,11.00
2022-11-10T23:02:10.076Z,11.00
2022-11-10T23:05:00.546Z,11.00
2022-11-10T23:07:50.966Z,11.00
2022-11-10T23:10:41.393Z,11.00
2022-11-10T23:13:34.742Z,10.90
2022-11-10T23:16:30.541Z,10.70
2022-11-10T23:19:20.767Z,10.70
2022-11-10T23:22:11.068Z,10.70
2022-11-10T23:25:01.508Z,10.70
2022-11-10T23:27:52.158Z,10.70
2022-11-10T23:30:42.151Z,10.70
2022-11-10T23:33:33.564Z,10.80
2022-11-10T23:36:25.852Z,10.80
2022-11-10T23:39:16.193Z,10.80
2022-11-10T23:42:06.839Z,10.80
2022-11-10T23:44:57.363Z,10.70
2022-11-10T23:47:47.992Z,10.80
2022-11-10T23:50:38.467Z,10.70
2022-11-10T23:53:29.473Z,10.70
2022-11-10T23:56:20.032Z,10.70
2022-11-10T23:59:10.634Z,10.70
